sensor_id;sensor_type;location;lat;lon;timestamp;P1;durP1;ratioP1;P2;durP2;ratioP2
44222;SDS011;29895;48.804;9.386;2023-05-15T00:00:50;14.05;;;6.90;;
44222;SDS011;29895;48.804;9.386;2023-05-15T00:03:16;10.88;;;7.30;;
44222;SDS011;29895;48.804;9.386;2023-05-15T00:05:42;11.60;;;7.00;;
44222;SDS011;29895;48.804;9.386;2023-05-15T00:08:07;8.85;;;6.50;;
44222;SDS011;29895;48.804;9.386;2023-05-15T00:10:33;14.07;;;7.03;;
44222;SDS011;29895;48.804;9.386;2023-05-15T00:12:59;13.23;;;7.15;;
44222;SDS011;29895;48.804;9.386;2023-05-15T00:15:25;9.50;;;6.28;;
44222;SDS011;29895;48.804;9.386;2023-05-15T00:17:51;12.57;;;7.45;;
44222;SDS011;29895;48.804;9.386;2023-05-15T00:20:16;11.13;;;6.90;;
44222;SDS011;29895;48.804;9.386;2023-05-15T00:22:42;12.63;;;6.97;;
44222;SDS011;29895;48.804;9.386;2023-05-15T00:25:08;13.57;;;7.15;;
44222;SDS011;29895;48.804;9.386;2023-05-15T00:27:34;12.60;;;6.80;;
44222;SDS011;29895;48.804;9.386;2023-05-15T00:30:00;10.93;;;7.07;;
44222;SDS011;29895;48.804;9.386;2023-05-15T00:32:25;11.80;;;7.15;;
44222;SDS011;29895;48.804;9.386;2023-05-15T00:34:51;12.35;;;7.28;;
44222;SDS011;29895;48.804;9.386;2023-05-15T00:37:17;11.30;;;6.97;;
44222;SDS011;29895;48.804;9.386;2023-05-15T00:39:42;13.63;;;7.53;;
44222;SDS011;29895;48.804;9.386;2023-05-15T00:42:08;10.68;;;6.95;;
44222;SDS011;29895;48.804;9.386;2023-05-15T00:44:34;9.68;;;6.68;;
44222;SDS011;29895;48.804;9.386;2023-05-15T00:47:02;11.93;;;6.88;;
44222;SDS011;29895;48.804;9.386;2023-05-15T00:49:29;12.32;;;7.05;;
44222;SDS011;29895;48.804;9.386;2023-05-15T00:51:56;11.05;;;7.10;;
44222;SDS011;29895;48.804;9.386;2023-05-15T00:54:25;10.65;;;7.30;;
44222;SDS011;29895;48.804;9.386;2023-05-15T00:56:51;11.65;;;7.25;;
44222;SDS011;29895;48.804;9.386;2023-05-15T00:59:29;10.60;;;7.40;;
44222;SDS011;29895;48.804;9.386;2023-05-15T01:01:55;12.75;;;7.63;;
44222;SDS011;29895;48.804;9.386;2023-05-15T01:04:21;12.55;;;7.80;;
44222;SDS011;29895;48.804;9.386;2023-05-15T01:06:47;11.85;;;8.02;;
44222;SDS011;29895;48.804;9.386;2023-05-15T01:09:13;11.73;;;7.80;;
44222;SDS011;29895;48.804;9.386;2023-05-15T01:11:39;11.20;;;7.70;;
44222;SDS011;29895;48.804;9.386;2023-05-15T01:14:06;12.88;;;7.70;;
44222;SDS011;29895;48.804;9.386;2023-05-15T01:16:33;16.60;;;8.15;;
44222;SDS011;29895;48.804;9.386;2023-05-15T01:18:59;13.85;;;8.27;;
44222;SDS011;29895;48.804;9.386;2023-05-15T01:29:36;11.73;;;7.82;;
44222;SDS011;29895;48.804;9.386;2023-05-15T01:32:15;12.52;;;8.10;;
44222;SDS011;29895;48.804;9.386;2023-05-15T01:37:22;11.10;;;8.15;;
44222;SDS011;29895;48.804;9.386;2023-05-15T01:39:50;12.57;;;7.38;;
44222;SDS011;29895;48.804;9.386;2023-05-15T01:42:19;10.57;;;7.78;;
44222;SDS011;29895;48.804;9.386;2023-05-15T01:44:52;10.55;;;7.47;;
44222;SDS011;29895;48.804;9.386;2023-05-15T01:47:21;10.15;;;7.60;;
44222;SDS011;29895;48.804;9.386;2023-05-15T01:49:55;11.95;;;8.07;;
44222;SDS011;29895;48.804;9.386;2023-05-15T01:52:25;11.98;;;8.05;;
44222;SDS011;29895;48.804;9.386;2023-05-15T01:54:54;12.38;;;7.55;;
44222;SDS011;29895;48.804;9.386;2023-05-15T01:57:22;12.65;;;8.48;;
44222;SDS011;29895;48.804;9.386;2023-05-15T01:59:50;11.93;;;8.13;;
44222;SDS011;29895;48.804;9.386;2023-05-15T02:02:18;10.80;;;7.75;;
44222;SDS011;29895;48.804;9.386;2023-05-15T02:04:44;11.30;;;7.97;;
44222;SDS011;29895;48.804;9.386;2023-05-15T02:07:11;11.88;;;7.65;;
44222;SDS011;29895;48.804;9.386;2023-05-15T02:09:37;14.07;;;7.57;;
44222;SDS011;29895;48.804;9.386;2023-05-15T02:12:05;11.57;;;7.50;;
44222;SDS011;29895;48.804;9.386;2023-05-15T02:14:31;9.23;;;7.35;;
44222;SDS011;29895;48.804;9.386;2023-05-15T02:16:57;10.57;;;7.22;;
44222;SDS011;29895;48.804;9.386;2023-05-15T02:19:23;10.98;;;7.82;;
44222;SDS011;29895;48.804;9.386;2023-05-15T02:21:49;12.10;;;7.40;;
44222;SDS011;29895;48.804;9.386;2023-05-15T02:24:15;10.90;;;7.70;;
44222;SDS011;29895;48.804;9.386;2023-05-15T02:26:50;10.77;;;7.60;;
44222;SDS011;29895;48.804;9.386;2023-05-15T02:37:06;12.15;;;9.02;;
44222;SDS011;29895;48.804;9.386;2023-05-15T02:42:04;10.30;;;7.38;;
44222;SDS011;29895;48.804;9.386;2023-05-15T02:44:31;11.52;;;7.95;;
44222;SDS011;29895;48.804;9.386;2023-05-15T02:46:59;10.82;;;7.53;;
44222;SDS011;29895;48.804;9.386;2023-05-15T02:49:26;11.70;;;7.95;;
44222;SDS011;29895;48.804;9.386;2023-05-15T02:51:51;10.45;;;7.63;;
44222;SDS011;29895;48.804;9.386;2023-05-15T02:54:17;10.98;;;7.32;;
44222;SDS011;29895;48.804;9.386;2023-05-15T02:56:43;11.88;;;8.40;;
44222;SDS011;29895;48.804;9.386;2023-05-15T02:59:08;11.57;;;7.95;;
44222;SDS011;29895;48.804;9.386;2023-05-15T03:01:34;12.75;;;7.47;;
44222;SDS011;29895;48.804;9.386;2023-05-15T03:03:59;15.77;;;8.32;;
44222;SDS011;29895;48.804;9.386;2023-05-15T03:06:25;11.05;;;8.02;;
44222;SDS011;29895;48.804;9.386;2023-05-15T03:08:51;11.93;;;8.32;;
44222;SDS011;29895;48.804;9.386;2023-05-15T03:11:16;13.80;;;8.85;;
44222;SDS011;29895;48.804;9.386;2023-05-15T03:13:43;12.70;;;8.57;;
44222;SDS011;29895;48.804;9.386;2023-05-15T03:16:08;12.38;;;8.80;;
44222;SDS011;29895;48.804;9.386;2023-05-15T03:18:34;13.57;;;8.20;;
44222;SDS011;29895;48.804;9.386;2023-05-15T03:21:00;12.60;;;8.30;;
44222;SDS011;29895;48.804;9.386;2023-05-15T03:23:25;12.98;;;8.95;;
44222;SDS011;29895;48.804;9.386;2023-05-15T03:25:51;11.00;;;7.78;;
44222;SDS011;29895;48.804;9.386;2023-05-15T03:28:16;14.10;;;8.00;;
44222;SDS011;29895;48.804;9.386;2023-05-15T03:30:42;11.63;;;7.80;;
44222;SDS011;29895;48.804;9.386;2023-05-15T03:33:09;12.57;;;8.50;;
44222;SDS011;29895;48.804;9.386;2023-05-15T03:35:34;16.55;;;8.75;;
44222;SDS011;29895;48.804;9.386;2023-05-15T03:38:00;10.95;;;8.23;;
44222;SDS011;29895;48.804;9.386;2023-05-15T03:40:26;11.75;;;8.38;;
44222;SDS011;29895;48.804;9.386;2023-05-15T03:42:51;12.27;;;8.05;;
44222;SDS011;29895;48.804;9.386;2023-05-15T03:45:17;10.85;;;7.82;;
44222;SDS011;29895;48.804;9.386;2023-05-15T03:47:43;13.73;;;8.85;;
44222;SDS011;29895;48.804;9.386;2023-05-15T03:50:09;13.27;;;8.80;;
44222;SDS011;29895;48.804;9.386;2023-05-15T03:52:35;14.55;;;8.43;;
44222;SDS011;29895;48.804;9.386;2023-05-15T03:55:01;13.80;;;8.73;;
44222;SDS011;29895;48.804;9.386;2023-05-15T03:57:27;12.95;;;8.50;;
44222;SDS011;29895;48.804;9.386;2023-05-15T03:59:53;13.13;;;8.02;;
44222;SDS011;29895;48.804;9.386;2023-05-15T04:02:18;11.85;;;8.85;;
44222;SDS011;29895;48.804;9.386;2023-05-15T04:04:44;13.35;;;8.70;;
44222;SDS011;29895;48.804;9.386;2023-05-15T04:07:09;10.73;;;7.75;;
44222;SDS011;29895;48.804;9.386;2023-05-15T04:09:35;12.43;;;8.65;;
44222;SDS011;29895;48.804;9.386;2023-05-15T04:12:01;16.73;;;9.52;;
44222;SDS011;29895;48.804;9.386;2023-05-15T04:14:26;13.27;;;8.93;;
44222;SDS011;29895;48.804;9.386;2023-05-15T04:16:52;11.10;;;8.30;;
44222;SDS011;29895;48.804;9.386;2023-05-15T04:19:18;11.32;;;8.27;;
44222;SDS011;29895;48.804;9.386;2023-05-15T04:21:43;11.55;;;8.40;;
44222;SDS011;29895;48.804;9.386;2023-05-15T04:24:09;12.32;;;8.68;;
44222;SDS011;29895;48.804;9.386;2023-05-15T04:26:34;14.20;;;9.38;;
44222;SDS011;29895;48.804;9.386;2023-05-15T04:29:00;12.85;;;8.32;;
44222;SDS011;29895;48.804;9.386;2023-05-15T04:31:27;12.05;;;7.90;;
44222;SDS011;29895;48.804;9.386;2023-05-15T04:33:52;15.50;;;6.95;;
44222;SDS011;29895;48.804;9.386;2023-05-15T04:36:18;9.95;;;7.00;;
44222;SDS011;29895;48.804;9.386;2023-05-15T04:38:45;11.57;;;7.13;;
44222;SDS011;29895;48.804;9.386;2023-05-15T04:41:10;10.07;;;6.93;;
44222;SDS011;29895;48.804;9.386;2023-05-15T04:43:36;10.20;;;6.60;;
44222;SDS011;29895;48.804;9.386;2023-05-15T04:46:01;9.65;;;6.18;;
44222;SDS011;29895;48.804;9.386;2023-05-15T04:48:27;8.43;;;6.30;;
44222;SDS011;29895;48.804;9.386;2023-05-15T04:50:53;15.02;;;7.50;;
44222;SDS011;29895;48.804;9.386;2023-05-15T04:53:18;10.95;;;6.57;;
44222;SDS011;29895;48.804;9.386;2023-05-15T04:55:44;10.27;;;6.25;;
44222;SDS011;29895;48.804;9.386;2023-05-15T04:58:10;10.80;;;6.97;;
44222;SDS011;29895;48.804;9.386;2023-05-15T05:00:35;8.02;;;6.18;;
44222;SDS011;29895;48.804;9.386;2023-05-15T05:03:01;8.65;;;6.10;;
44222;SDS011;29895;48.804;9.386;2023-05-15T05:05:26;8.85;;;5.78;;
44222;SDS011;29895;48.804;9.386;2023-05-15T05:07:52;12.55;;;6.97;;
44222;SDS011;29895;48.804;9.386;2023-05-15T05:10:18;8.88;;;6.45;;
44222;SDS011;29895;48.804;9.386;2023-05-15T05:12:43;11.38;;;6.95;;
44222;SDS011;29895;48.804;9.386;2023-05-15T05:15:09;11.10;;;7.53;;
44222;SDS011;29895;48.804;9.386;2023-05-15T05:17:35;9.73;;;6.90;;
44222;SDS011;29895;48.804;9.386;2023-05-15T05:20:00;9.73;;;7.05;;
44222;SDS011;29895;48.804;9.386;2023-05-15T05:22:26;14.80;;;7.22;;
44222;SDS011;29895;48.804;9.386;2023-05-15T05:24:52;10.63;;;8.02;;
44222;SDS011;29895;48.804;9.386;2023-05-15T05:27:17;9.80;;;7.35;;
44222;SDS011;29895;48.804;9.386;2023-05-15T05:29:43;9.90;;;7.55;;
44222;SDS011;29895;48.804;9.386;2023-05-15T05:32:08;11.85;;;7.93;;
44222;SDS011;29895;48.804;9.386;2023-05-15T05:34:34;10.15;;;7.70;;
44222;SDS011;29895;48.804;9.386;2023-05-15T05:37:00;10.55;;;7.90;;
44222;SDS011;29895;48.804;9.386;2023-05-15T05:39:25;11.80;;;9.23;;
44222;SDS011;29895;48.804;9.386;2023-05-15T05:41:51;9.45;;;7.38;;
44222;SDS011;29895;48.804;9.386;2023-05-15T05:44:17;11.27;;;8.00;;
44222;SDS011;29895;48.804;9.386;2023-05-15T05:46:42;12.80;;;7.90;;
44222;SDS011;29895;48.804;9.386;2023-05-15T05:49:09;8.55;;;7.00;;
44222;SDS011;29895;48.804;9.386;2023-05-15T05:51:35;14.05;;;7.32;;
44222;SDS011;29895;48.804;9.386;2023-05-15T05:54:01;12.32;;;7.90;;
44222;SDS011;29895;48.804;9.386;2023-05-15T05:56:26;14.90;;;9.05;;
44222;SDS011;29895;48.804;9.386;2023-05-15T05:58:52;11.65;;;8.40;;
44222;SDS011;29895;48.804;9.386;2023-05-15T06:01:19;12.70;;;7.32;;
44222;SDS011;29895;48.804;9.386;2023-05-15T06:03:45;16.90;;;11.00;;
44222;SDS011;29895;48.804;9.386;2023-05-15T06:06:10;12.13;;;8.95;;
44222;SDS011;29895;48.804;9.386;2023-05-15T06:08:36;13.40;;;8.02;;
44222;SDS011;29895;48.804;9.386;2023-05-15T06:11:02;10.73;;;7.68;;
44222;SDS011;29895;48.804;9.386;2023-05-15T06:13:27;10.57;;;7.03;;
44222;SDS011;29895;48.804;9.386;2023-05-15T06:15:53;10.00;;;7.28;;
44222;SDS011;29895;48.804;9.386;2023-05-15T06:18:19;12.68;;;7.55;;
44222;SDS011;29895;48.804;9.386;2023-05-15T06:20:45;11.57;;;8.38;;
44222;SDS011;29895;48.804;9.386;2023-05-15T06:23:10;12.02;;;7.85;;
44222;SDS011;29895;48.804;9.386;2023-05-15T06:25:36;11.32;;;7.57;;
44222;SDS011;29895;48.804;9.386;2023-05-15T06:28:02;11.13;;;7.28;;
44222;SDS011;29895;48.804;9.386;2023-05-15T06:30:28;10.88;;;7.97;;
44222;SDS011;29895;48.804;9.386;2023-05-15T06:32:54;11.77;;;8.63;;
44222;SDS011;29895;48.804;9.386;2023-05-15T06:35:19;10.63;;;8.07;;
44222;SDS011;29895;48.804;9.386;2023-05-15T06:37:48;12.70;;;8.00;;
44222;SDS011;29895;48.804;9.386;2023-05-15T06:40:14;9.50;;;7.80;;
44222;SDS011;29895;48.804;9.386;2023-05-15T06:42:40;12.25;;;7.82;;
44222;SDS011;29895;48.804;9.386;2023-05-15T06:45:06;10.20;;;7.28;;
44222;SDS011;29895;48.804;9.386;2023-05-15T06:47:32;12.70;;;7.88;;
44222;SDS011;29895;48.804;9.386;2023-05-15T06:49:58;10.02;;;7.20;;
44222;SDS011;29895;48.804;9.386;2023-05-15T06:52:24;9.05;;;6.68;;
44222;SDS011;29895;48.804;9.386;2023-05-15T06:54:49;9.82;;;6.95;;
44222;SDS011;29895;48.804;9.386;2023-05-15T06:57:16;8.98;;;6.80;;
44222;SDS011;29895;48.804;9.386;2023-05-15T06:59:42;10.32;;;7.68;;
44222;SDS011;29895;48.804;9.386;2023-05-15T07:02:07;9.88;;;6.93;;
44222;SDS011;29895;48.804;9.386;2023-05-15T07:04:33;12.10;;;6.70;;
44222;SDS011;29895;48.804;9.386;2023-05-15T07:06:59;11.68;;;6.78;;
44222;SDS011;29895;48.804;9.386;2023-05-15T07:09:25;9.95;;;6.00;;
44222;SDS011;29895;48.804;9.386;2023-05-15T07:11:51;8.30;;;6.20;;
44222;SDS011;29895;48.804;9.386;2023-05-15T07:14:16;8.77;;;6.68;;
44222;SDS011;29895;48.804;9.386;2023-05-15T07:16:42;10.43;;;6.05;;
44222;SDS011;29895;48.804;9.386;2023-05-15T07:19:08;7.70;;;6.10;;
44222;SDS011;29895;48.804;9.386;2023-05-15T07:21:33;9.27;;;5.82;;
44222;SDS011;29895;48.804;9.386;2023-05-15T07:23:59;7.70;;;6.38;;
44222;SDS011;29895;48.804;9.386;2023-05-15T07:26:25;7.97;;;6.18;;
44222;SDS011;29895;48.804;9.386;2023-05-15T07:28:51;10.43;;;6.30;;
44222;SDS011;29895;48.804;9.386;2023-05-15T07:31:16;8.32;;;6.13;;
44222;SDS011;29895;48.804;9.386;2023-05-15T07:33:42;7.40;;;5.85;;
44222;SDS011;29895;48.804;9.386;2023-05-15T07:36:07;10.98;;;5.55;;
44222;SDS011;29895;48.804;9.386;2023-05-15T07:38:33;7.32;;;5.72;;
44222;SDS011;29895;48.804;9.386;2023-05-15T07:40:59;7.20;;;5.20;;
44222;SDS011;29895;48.804;9.386;2023-05-15T07:43:24;7.75;;;5.60;;
44222;SDS011;29895;48.804;9.386;2023-05-15T07:45:50;14.80;;;6.30;;
44222;SDS011;29895;48.804;9.386;2023-05-15T07:48:16;10.10;;;5.95;;
44222;SDS011;29895;48.804;9.386;2023-05-15T07:50:43;12.15;;;6.43;;
44222;SDS011;29895;48.804;9.386;2023-05-15T07:53:10;6.65;;;4.97;;
44222;SDS011;29895;48.804;9.386;2023-05-15T07:55:36;7.05;;;4.35;;
44222;SDS011;29895;48.804;9.386;2023-05-15T07:58:02;7.80;;;4.72;;
44222;SDS011;29895;48.804;9.386;2023-05-15T08:00:28;10.00;;;5.38;;
44222;SDS011;29895;48.804;9.386;2023-05-15T08:02:53;8.23;;;5.93;;
44222;SDS011;29895;48.804;9.386;2023-05-15T08:05:19;6.78;;;5.10;;
44222;SDS011;29895;48.804;9.386;2023-05-15T08:07:44;6.60;;;5.07;;
44222;SDS011;29895;48.804;9.386;2023-05-15T08:10:10;7.25;;;5.30;;
44222;SDS011;29895;48.804;9.386;2023-05-15T08:12:36;5.95;;;4.88;;
44222;SDS011;29895;48.804;9.386;2023-05-15T08:15:02;6.05;;;4.68;;
44222;SDS011;29895;48.804;9.386;2023-05-15T08:17:28;5.93;;;4.97;;
44222;SDS011;29895;48.804;9.386;2023-05-15T08:19:54;5.32;;;4.32;;
44222;SDS011;29895;48.804;9.386;2023-05-15T08:22:19;5.75;;;4.70;;
44222;SDS011;29895;48.804;9.386;2023-05-15T08:24:45;6.85;;;4.32;;
44222;SDS011;29895;48.804;9.386;2023-05-15T08:27:11;6.38;;;4.40;;
44222;SDS011;29895;48.804;9.386;2023-05-15T08:29:37;6.78;;;4.93;;
44222;SDS011;29895;48.804;9.386;2023-05-15T08:32:04;6.00;;;4.57;;
44222;SDS011;29895;48.804;9.386;2023-05-15T08:34:31;6.10;;;4.20;;
44222;SDS011;29895;48.804;9.386;2023-05-15T08:36:57;8.80;;;4.70;;
44222;SDS011;29895;48.804;9.386;2023-05-15T08:39:23;5.82;;;4.50;;
44222;SDS011;29895;48.804;9.386;2023-05-15T08:41:50;8.88;;;5.20;;
44222;SDS011;29895;48.804;9.386;2023-05-15T08:44:24;5.25;;;4.57;;
44222;SDS011;29895;48.804;9.386;2023-05-15T08:46:51;7.93;;;5.78;;
44222;SDS011;29895;48.804;9.386;2023-05-15T08:52:05;7.00;;;4.28;;
44222;SDS011;29895;48.804;9.386;2023-05-15T08:54:30;6.95;;;4.38;;
44222;SDS011;29895;48.804;9.386;2023-05-15T08:56:57;5.75;;;4.28;;
44222;SDS011;29895;48.804;9.386;2023-05-15T08:59:24;7.35;;;4.35;;
44222;SDS011;29895;48.804;9.386;2023-05-15T09:01:49;6.60;;;4.68;;
44222;SDS011;29895;48.804;9.386;2023-05-15T09:04:16;6.97;;;4.78;;
44222;SDS011;29895;48.804;9.386;2023-05-15T09:06:42;9.45;;;5.82;;
44222;SDS011;29895;48.804;9.386;2023-05-15T09:09:09;6.20;;;4.80;;
44222;SDS011;29895;48.804;9.386;2023-05-15T09:11:37;6.75;;;4.35;;
44222;SDS011;29895;48.804;9.386;2023-05-15T09:14:08;4.93;;;4.30;;
44222;SDS011;29895;48.804;9.386;2023-05-15T09:16:33;6.30;;;4.95;;
44222;SDS011;29895;48.804;9.386;2023-05-15T09:18:59;5.32;;;3.80;;
44222;SDS011;29895;48.804;9.386;2023-05-15T09:21:27;6.63;;;4.22;;
44222;SDS011;29895;48.804;9.386;2023-05-15T09:23:56;7.05;;;4.85;;
44222;SDS011;29895;48.804;9.386;2023-05-15T09:26:42;8.20;;;5.13;;
44222;SDS011;29895;48.804;9.386;2023-05-15T09:29:09;7.55;;;4.57;;
44222;SDS011;29895;48.804;9.386;2023-05-15T09:31:36;6.18;;;4.30;;
44222;SDS011;29895;48.804;9.386;2023-05-15T09:34:01;4.57;;;4.10;;
44222;SDS011;29895;48.804;9.386;2023-05-15T09:36:30;4.97;;;4.05;;
44222;SDS011;29895;48.804;9.386;2023-05-15T09:38:57;5.75;;;3.85;;
44222;SDS011;29895;48.804;9.386;2023-05-15T09:41:24;7.35;;;3.60;;
44222;SDS011;29895;48.804;9.386;2023-05-15T09:43:51;10.68;;;4.03;;
44222;SDS011;29895;48.804;9.386;2023-05-15T09:46:18;5.95;;;3.50;;
44222;SDS011;29895;48.804;9.386;2023-05-15T09:48:43;5.28;;;3.95;;
44222;SDS011;29895;48.804;9.386;2023-05-15T09:51:15;7.05;;;4.35;;
44222;SDS011;29895;48.804;9.386;2023-05-15T09:53:47;4.53;;;3.70;;
44222;SDS011;29895;48.804;9.386;2023-05-15T09:56:15;6.05;;;3.67;;
44222;SDS011;29895;48.804;9.386;2023-05-15T10:01:20;5.60;;;4.00;;
44222;SDS011;29895;48.804;9.386;2023-05-15T10:03:56;4.63;;;4.03;;
44222;SDS011;29895;48.804;9.386;2023-05-15T10:06:23;5.47;;;4.00;;
44222;SDS011;29895;48.804;9.386;2023-05-15T10:08:50;5.82;;;3.70;;
44222;SDS011;29895;48.804;9.386;2023-05-15T10:11:18;3.70;;;2.92;;
44222;SDS011;29895;48.804;9.386;2023-05-15T10:13:47;6.90;;;3.65;;
44222;SDS011;29895;48.804;9.386;2023-05-15T10:16:14;3.90;;;3.50;;
44222;SDS011;29895;48.804;9.386;2023-05-15T10:18:40;6.22;;;3.65;;
44222;SDS011;29895;48.804;9.386;2023-05-15T10:21:09;6.28;;;3.65;;
44222;SDS011;29895;48.804;9.386;2023-05-15T10:23:35;5.97;;;4.03;;
44222;SDS011;29895;48.804;9.386;2023-05-15T10:26:07;9.23;;;3.90;;
44222;SDS011;29895;48.804;9.386;2023-05-15T10:28:38;4.25;;;2.92;;
44222;SDS011;29895;48.804;9.386;2023-05-15T10:31:04;6.45;;;3.78;;
44222;SDS011;29895;48.804;9.386;2023-05-15T10:33:30;8.82;;;3.75;;
44222;SDS011;29895;48.804;9.386;2023-05-15T10:35:57;5.05;;;3.15;;
44222;SDS011;29895;48.804;9.386;2023-05-15T10:38:23;4.07;;;3.40;;
44222;SDS011;29895;48.804;9.386;2023-05-15T10:40:51;5.93;;;2.97;;
44222;SDS011;29895;48.804;9.386;2023-05-15T10:43:17;4.50;;;3.20;;
44222;SDS011;29895;48.804;9.386;2023-05-15T10:45:44;4.57;;;3.13;;
44222;SDS011;29895;48.804;9.386;2023-05-15T10:48:11;3.50;;;2.92;;
44222;SDS011;29895;48.804;9.386;2023-05-15T10:50:38;4.05;;;2.83;;
44222;SDS011;29895;48.804;9.386;2023-05-15T10:53:04;5.07;;;3.05;;
44222;SDS011;29895;48.804;9.386;2023-05-15T10:55:30;4.70;;;2.88;;
44222;SDS011;29895;48.804;9.386;2023-05-15T10:57:56;6.43;;;3.58;;
44222;SDS011;29895;48.804;9.386;2023-05-15T11:02:47;5.68;;;2.75;;
44222;SDS011;29895;48.804;9.386;2023-05-15T11:05:14;3.65;;;2.83;;
44222;SDS011;29895;48.804;9.386;2023-05-15T11:07:40;4.32;;;3.35;;
44222;SDS011;29895;48.804;9.386;2023-05-15T11:12:54;6.13;;;3.20;;
44222;SDS011;29895;48.804;9.386;2023-05-15T11:15:21;3.83;;;2.70;;
44222;SDS011;29895;48.804;9.386;2023-05-15T11:18:00;5.10;;;3.00;;
44222;SDS011;29895;48.804;9.386;2023-05-15T11:20:31;2.90;;;2.60;;
44222;SDS011;29895;48.804;9.386;2023-05-15T11:23:02;3.70;;;2.60;;
44222;SDS011;29895;48.804;9.386;2023-05-15T11:25:28;4.68;;;2.95;;
44222;SDS011;29895;48.804;9.386;2023-05-15T11:27:57;4.93;;;2.75;;
44222;SDS011;29895;48.804;9.386;2023-05-15T11:30:36;4.82;;;2.92;;
44222;SDS011;29895;48.804;9.386;2023-05-15T11:33:06;5.10;;;2.85;;
44222;SDS011;29895;48.804;9.386;2023-05-15T11:38:23;7.03;;;3.55;;
44222;SDS011;29895;48.804;9.386;2023-05-15T11:40:50;2.63;;;2.40;;
44222;SDS011;29895;48.804;9.386;2023-05-15T11:43:27;5.65;;;3.03;;
44222;SDS011;29895;48.804;9.386;2023-05-15T11:45:54;2.38;;;2.08;;
44222;SDS011;29895;48.804;9.386;2023-05-15T11:51:21;2.92;;;2.58;;
44222;SDS011;29895;48.804;9.386;2023-05-15T11:53:49;3.42;;;2.38;;
44222;SDS011;29895;48.804;9.386;2023-05-15T11:56:20;4.32;;;2.70;;
44222;SDS011;29895;48.804;9.386;2023-05-15T11:58:48;2.90;;;2.15;;
44222;SDS011;29895;48.804;9.386;2023-05-15T12:01:14;7.25;;;2.72;;
44222;SDS011;29895;48.804;9.386;2023-05-15T12:03:40;2.38;;;2.00;;
44222;SDS011;29895;48.804;9.386;2023-05-15T12:06:06;2.15;;;1.85;;
44222;SDS011;29895;48.804;9.386;2023-05-15T12:08:32;2.50;;;2.00;;
44222;SDS011;29895;48.804;9.386;2023-05-15T12:10:59;5.07;;;2.05;;
44222;SDS011;29895;48.804;9.386;2023-05-15T12:13:25;2.38;;;1.50;;
44222;SDS011;29895;48.804;9.386;2023-05-15T12:15:52;4.78;;;1.83;;
44222;SDS011;29895;48.804;9.386;2023-05-15T12:18:19;2.30;;;1.75;;
44222;SDS011;29895;48.804;9.386;2023-05-15T12:20:45;2.72;;;2.15;;
44222;SDS011;29895;48.804;9.386;2023-05-15T12:23:13;4.00;;;1.92;;
44222;SDS011;29895;48.804;9.386;2023-05-15T12:25:40;3.45;;;2.45;;
44222;SDS011;29895;48.804;9.386;2023-05-15T12:28:07;5.30;;;2.38;;
44222;SDS011;29895;48.804;9.386;2023-05-15T12:30:33;4.07;;;2.50;;
44222;SDS011;29895;48.804;9.386;2023-05-15T12:33:03;2.85;;;1.90;;
44222;SDS011;29895;48.804;9.386;2023-05-15T12:35:40;7.45;;;2.15;;
44222;SDS011;29895;48.804;9.386;2023-05-15T12:38:15;4.30;;;2.20;;
44222;SDS011;29895;48.804;9.386;2023-05-15T12:40:42;3.55;;;2.05;;
44222;SDS011;29895;48.804;9.386;2023-05-15T12:43:10;4.32;;;2.15;;
44222;SDS011;29895;48.804;9.386;2023-05-15T12:45:38;3.13;;;2.15;;
44222;SDS011;29895;48.804;9.386;2023-05-15T12:48:04;4.65;;;2.17;;
44222;SDS011;29895;48.804;9.386;2023-05-15T12:50:32;4.32;;;2.00;;
44222;SDS011;29895;48.804;9.386;2023-05-15T12:53:02;5.22;;;2.10;;
44222;SDS011;29895;48.804;9.386;2023-05-15T12:55:29;5.32;;;2.30;;
44222;SDS011;29895;48.804;9.386;2023-05-15T12:58:00;6.93;;;1.97;;
44222;SDS011;29895;48.804;9.386;2023-05-15T13:00:30;3.72;;;2.25;;
44222;SDS011;29895;48.804;9.386;2023-05-15T13:02:57;3.88;;;2.50;;
44222;SDS011;29895;48.804;9.386;2023-05-15T13:05:33;2.78;;;1.98;;
44222;SDS011;29895;48.804;9.386;2023-05-15T13:08:01;5.30;;;2.05;;
44222;SDS011;29895;48.804;9.386;2023-05-15T13:10:28;2.35;;;2.13;;
44222;SDS011;29895;48.804;9.386;2023-05-15T13:12:56;3.50;;;2.00;;
44222;SDS011;29895;48.804;9.386;2023-05-15T13:15:36;2.40;;;2.15;;
44222;SDS011;29895;48.804;9.386;2023-05-15T13:18:05;3.95;;;2.80;;
44222;SDS011;29895;48.804;9.386;2023-05-15T13:20:39;2.85;;;2.50;;
44222;SDS011;29895;48.804;9.386;2023-05-15T13:23:09;3.80;;;2.50;;
44222;SDS011;29895;48.804;9.386;2023-05-15T13:25:39;4.30;;;3.00;;
44222;SDS011;29895;48.804;9.386;2023-05-15T13:28:05;4.22;;;2.83;;
44222;SDS011;29895;48.804;9.386;2023-05-15T13:30:32;6.72;;;3.03;;
44222;SDS011;29895;48.804;9.386;2023-05-15T13:32:58;3.42;;;2.88;;
44222;SDS011;29895;48.804;9.386;2023-05-15T13:35:25;4.88;;;3.28;;
44222;SDS011;29895;48.804;9.386;2023-05-15T13:37:51;3.92;;;3.00;;
44222;SDS011;29895;48.804;9.386;2023-05-15T13:40:17;4.95;;;3.40;;
44222;SDS011;29895;48.804;9.386;2023-05-15T13:42:42;3.70;;;3.38;;
44222;SDS011;29895;48.804;9.386;2023-05-15T13:45:09;4.15;;;2.85;;
44222;SDS011;29895;48.804;9.386;2023-05-15T13:47:36;3.70;;;2.65;;
44222;SDS011;29895;48.804;9.386;2023-05-15T13:50:05;3.70;;;2.70;;
44222;SDS011;29895;48.804;9.386;2023-05-15T13:52:32;3.88;;;2.97;;
44222;SDS011;29895;48.804;9.386;2023-05-15T13:54:58;3.15;;;2.40;;
44222;SDS011;29895;48.804;9.386;2023-05-15T13:57:23;3.85;;;2.58;;
44222;SDS011;29895;48.804;9.386;2023-05-15T13:59:49;3.83;;;2.70;;
44222;SDS011;29895;48.804;9.386;2023-05-15T14:02:15;3.08;;;2.35;;
44222;SDS011;29895;48.804;9.386;2023-05-15T14:04:40;5.25;;;2.45;;
44222;SDS011;29895;48.804;9.386;2023-05-15T14:07:06;3.20;;;2.20;;
44222;SDS011;29895;48.804;9.386;2023-05-15T14:09:32;4.28;;;2.33;;
44222;SDS011;29895;48.804;9.386;2023-05-15T14:11:57;4.65;;;2.60;;
44222;SDS011;29895;48.804;9.386;2023-05-15T14:14:23;2.75;;;2.53;;
44222;SDS011;29895;48.804;9.386;2023-05-15T14:16:48;5.55;;;2.58;;
44222;SDS011;29895;48.804;9.386;2023-05-15T14:19:14;6.40;;;2.53;;
44222;SDS011;29895;48.804;9.386;2023-05-15T14:21:40;4.45;;;3.03;;
44222;SDS011;29895;48.804;9.386;2023-05-15T14:24:06;3.80;;;2.67;;
44222;SDS011;29895;48.804;9.386;2023-05-15T14:26:31;3.63;;;2.67;;
44222;SDS011;29895;48.804;9.386;2023-05-15T14:28:57;4.00;;;2.88;;
44222;SDS011;29895;48.804;9.386;2023-05-15T14:31:23;6.10;;;2.83;;
44222;SDS011;29895;48.804;9.386;2023-05-15T14:33:49;5.82;;;2.67;;
44222;SDS011;29895;48.804;9.386;2023-05-15T14:36:15;4.45;;;2.58;;
44222;SDS011;29895;48.804;9.386;2023-05-15T14:38:41;11.30;;;2.80;;
44222;SDS011;29895;48.804;9.386;2023-05-15T14:41:09;3.42;;;2.65;;
44222;SDS011;29895;48.804;9.386;2023-05-15T14:43:35;3.33;;;2.30;;
44222;SDS011;29895;48.804;9.386;2023-05-15T14:46:01;3.00;;;2.40;;
44222;SDS011;29895;48.804;9.386;2023-05-15T14:48:29;7.50;;;2.58;;
44222;SDS011;29895;48.804;9.386;2023-05-15T14:50:55;5.00;;;3.00;;
44222;SDS011;29895;48.804;9.386;2023-05-15T14:53:21;3.53;;;2.40;;
44222;SDS011;29895;48.804;9.386;2023-05-15T14:55:47;7.05;;;2.38;;
44222;SDS011;29895;48.804;9.386;2023-05-15T14:58:13;3.20;;;2.40;;
44222;SDS011;29895;48.804;9.386;2023-05-15T15:00:38;3.65;;;2.58;;
44222;SDS011;29895;48.804;9.386;2023-05-15T15:03:04;3.90;;;2.50;;
44222;SDS011;29895;48.804;9.386;2023-05-15T15:05:30;3.33;;;2.72;;
44222;SDS011;29895;48.804;9.386;2023-05-15T15:08:06;4.65;;;3.30;;
44222;SDS011;29895;48.804;9.386;2023-05-15T15:10:34;4.78;;;2.67;;
44222;SDS011;29895;48.804;9.386;2023-05-15T15:13:01;5.47;;;2.70;;
44222;SDS011;29895;48.804;9.386;2023-05-15T15:15:27;7.05;;;2.80;;
44222;SDS011;29895;48.804;9.386;2023-05-15T15:17:54;4.60;;;2.97;;